Time;durP1;ratioP1;P1;durP2;ratioP2;P2;SDS_P1;SDS_P2;PMS_P1;PMS_P2;Temp;Humidity;BMP_temperature;BMP_pressure;BME280_temperature;BME280_humidity;BME280_pressure;Samples;Min_cycle;Max_cycle;Signal;HPM_P1;HPM_P2
2023/11/23 00:01:58;;;;;;;13.5;8.2;;;;;;;;;;;;;
2023/11/23 00:04:23;;;;;;;12.1;7.9;;;;;;;;;;;;;
2023/11/23 00:06:48;;;;;;;13.6;9;;;;;;;;;;;;;
2023/11/23 00:09:14;;;;;;;13.5;8.6;;;;;;;;;;;;;
2023/11/23 00:11:38;;;;;;;13.4;8.4;;;;;;;;;;;;;
2023/11/23 00:14:08;;;;;;;12.5;8.5;;;;;;;;;;;;;
2023/11/23 00:16:34;;;;;;;12.1;7.7;;;;;;;;;;;;;
2023/11/23 00:19:00;;;;;;;12.6;7.8;;;;;;;;;;;;;
2023/11/23 00:21:26;;;;;;;13.6;8.7;;;;;;;;;;;;;
2023/11/23 00:23:57;;;;;;;12.3;8;;;;;;;;;;;;;
2023/11/23 00:26:23;;;;;;;11.9;8.1;;;;;;;;;;;;;
2023/11/23 00:28:47;;;;;;;13.2;8.4;;;;;;;;;;;;;
2023/11/23 00:31:17;;;;;;;16.2;9.4;;;;;;;;;;;;;
2023/11/23 00:33:47;;;;;;;20.5;10.7;;;;;;;;;;;;;
2023/11/23 00:36:15;;;;;;;20.1;11.1;;;;;;;;;;;;;
2023/11/23 00:38:45;;;;;;;16.4;9.4;;;;;;;;;;;;;
2023/11/23 00:41:13;;;;;;;14.6;8.2;;;;;;;;;;;;;
2023/11/23 00:43:43;;;;;;;12.9;8.2;;;;;;;;;;;;;
2023/11/23 00:46:07;;;;;;;13;8.7;;;;;;;;;;;;;
2023/11/23 00:48:37;;;;;;;13.9;8.8;;;;;;;;;;;;;
2023/11/23 00:51:08;;;;;;;15.1;9.6;;;;;;;;;;;;;
2023/11/23 00:53:39;;;;;;;14.4;8.7;;;;;;;;;;;;;
2023/11/23 00:56:04;;;;;;;12.1;8.4;;;;;;;;;;;;;
2023/11/23 00:58:31;;;;;;;12.9;8.3;;;;;;;;;;;;;
2023/11/23 01:00:56;;;;;;;13;8.6;;;;;;;;;;;;;
2023/11/23 01:03:26;;;;;;;13.9;9.3;;;;;;;;;;;;;
2023/11/23 01:05:49;;;;;;;20.3;16.7;;;;;;;;;;;;;
2023/11/23 01:08:16;;;;;;;15.6;11.4;;;;;;;;;;;;;
2023/11/23 01:10:39;;;;;;;15.2;10.8;;;;;;;;;;;;;
2023/11/23 01:13:07;;;;;;;12.8;9;;;;;;;;;;;;;
2023/11/23 01:15:32;;;;;;;12.3;9.4;;;;;;;;;;;;;
2023/11/23 01:17:58;;;;;;;13.7;10;;;;;;;;;;;;;
2023/11/23 01:20:22;;;;;;;10.1;7.5;;;;;;;;;;;;;
2023/11/23 01:22:50;;;;;;;13.2;10.4;;;;;;;;;;;;;
2023/11/23 01:25:15;;;;;;;11.3;7.8;;;;;;;;;;;;;
2023/11/23 01:27:42;;;;;;;12.4;7.9;;;;;;;;;;;;;
2023/11/23 01:30:07;;;;;;;9.1;7;;;;;;;;;;;;;
2023/11/23 01:32:34;;;;;;;9.4;6.5;;;;;;;;;;;;;
2023/11/23 01:34:59;;;;;;;7;5;;;;;;;;;;;;;
2023/11/23 01:37:26;;;;;;;7.2;5;;;;;;;;;;;;;
2023/11/23 01:39:52;;;;;;;8;5.3;;;;;;;;;;;;;
2023/11/23 01:42:18;;;;;;;5.7;4.2;;;;;;;;;;;;;
2023/11/23 01:44:43;;;;;;;4.8;4;;;;;;;;;;;;;
2023/11/23 01:47:09;;;;;;;5.8;4.1;;;;;;;;;;;;;
2023/11/23 01:49:35;;;;;;;6.7;4.4;;;;;;;;;;;;;
2023/11/23 01:52:00;;;;;;;6.1;4.7;;;;;;;;;;;;;
2023/11/23 01:54:25;;;;;;;9.6;5.5;;;;;;;;;;;;;
2023/11/23 01:56:51;;;;;;;7.8;5.4;;;;;;;;;;;;;
2023/11/23 01:59:17;;;;;;;8.9;5.6;;;;;;;;;;;;;
2023/11/23 02:01:44;;;;;;;7.9;5.1;;;;;;;;;;;;;
2023/11/23 02:04:09;;;;;;;7.5;5.2;;;;;;;;;;;;;
2023/11/23 02:06:34;;;;;;;7.2;5.1;;;;;;;;;;;;;
2023/11/23 02:09:00;;;;;;;7.7;5.1;;;;;;;;;;;;;
2023/11/23 02:11:27;;;;;;;6.2;4.5;;;;;;;;;;;;;
2023/11/23 02:13:51;;;;;;;6.3;4.8;;;;;;;;;;;;;
2023/11/23 02:16:18;;;;;;;6.7;4.5;;;;;;;;;;;;;
2023/11/23 02:18:47;;;;;;;5.7;4.3;;;;;;;;;;;;;
2023/11/23 02:21:12;;;;;;;5.7;4.1;;;;;;;;;;;;;
2023/11/23 02:23:38;;;;;;;7.6;4.7;;;;;;;;;;;;;
2023/11/23 02:26:03;;;;;;;5.7;4.3;;;;;;;;;;;;;
2023/11/23 02:28:31;;;;;;;5.3;3.8;;;;;;;;;;;;;
2023/11/23 02:30:57;;;;;;;5.5;3.9;;;;;;;;;;;;;
2023/11/23 02:33:23;;;;;;;5.9;4;;;;;;;;;;;;;
2023/11/23 02:35:48;;;;;;;6.1;4.3;;;;;;;;;;;;;
2023/11/23 02:38:13;;;;;;;5.8;4.5;;;;;;;;;;;;;
2023/11/23 02:40:38;;;;;;;8.3;5.7;;;;;;;;;;;;;
2023/11/23 02:43:08;;;;;;;7.6;4.8;;;;;;;;;;;;;
2023/11/23 02:45:37;;;;;;;6.5;4.4;;;;;;;;;;;;;
2023/11/23 02:48:03;;;;;;;6;4.4;;;;;;;;;;;;;
2023/11/23 02:50:31;;;;;;;8.7;4.8;;;;;;;;;;;;;
2023/11/23 02:53:03;;;;;;;7.3;4.5;;;;;;;;;;;;;
2023/11/23 02:55:27;;;;;;;11.2;6.2;;;;;;;;;;;;;
2023/11/23 02:57:52;;;;;;;8;5.4;;;;;;;;;;;;;
2023/11/23 03:00:17;;;;;;;9.1;6.5;;;;;;;;;;;;;
2023/11/23 03:02:45;;;;;;;7.5;5.6;;;;;;;;;;;;;
2023/11/23 03:05:12;;;;;;;8.9;5.6;;;;;;;;;;;;;
2023/11/23 03:07:41;;;;;;;9.3;5.6;;;;;;;;;;;;;
2023/11/23 03:10:12;;;;;;;8.6;5.9;;;;;;;;;;;;;
2023/11/23 03:12:38;;;;;;;9.3;6.5;;;;;;;;;;;;;
2023/11/23 03:15:03;;;;;;;12.3;7.3;;;;;;;;;;;;;
2023/11/23 03:17:28;;;;;;;11;6.5;;;;;;;;;;;;;
2023/11/23 03:19:55;;;;;;;12.2;8.5;;;;;;;;;;;;;
2023/11/23 03:22:19;;;;;;;10.1;6.8;;;;;;;;;;;;;
2023/11/23 03:24:44;;;;;;;9.7;6.7;;;;;;;;;;;;;
2023/11/23 03:27:10;;;;;;;9.9;5.9;;;;;;;;;;;;;
2023/11/23 03:29:37;;;;;;;9.5;6.2;;;;;;;;;;;;;
2023/11/23 03:32:02;;;;;;;8.5;5.7;;;;;;;;;;;;;
2023/11/23 03:34:28;;;;;;;10.7;6.5;;;;;;;;;;;;;
2023/11/23 03:36:55;;;;;;;10;7.2;;;;;;;;;;;;;
2023/11/23 03:39:20;;;;;;;11.9;7;;;;;;;;;;;;;
2023/11/23 03:41:47;;;;;;;11.6;6.7;;;;;;;;;;;;;
2023/11/23 03:44:14;;;;;;;10.4;6.6;;;;;;;;;;;;;
2023/11/23 03:46:40;;;;;;;13.9;7;;;;;;;;;;;;;
2023/11/23 03:49:06;;;;;;;9.7;6.1;;;;;;;;;;;;;
2023/11/23 03:51:32;;;;;;;7.4;5.3;;;;;;;;;;;;;
2023/11/23 03:53:58;;;;;;;8.5;5.8;;;;;;;;;;;;;
2023/11/23 03:56:24;;;;;;;7.7;5.2;;;;;;;;;;;;;
2023/11/23 03:58:49;;;;;;;8.5;5.1;;;;;;;;;;;;;
2023/11/23 04:02:28;;;;;;;7.5;5.5;;;;;;;;;;;;;
2023/11/23 04:04:54;;;;;;;8.4;5.3;;;;;;;;;;;;;
2023/11/23 04:07:19;;;;;;;8.6;6;;;;;;;;;;;;;
2023/11/23 04:09:44;;;;;;;9.6;5.6;;;;;;;;;;;;;
2023/11/23 04:12:12;;;;;;;9.1;5.8;;;;;;;;;;;;;
2023/11/23 04:14:37;;;;;;;7.8;5.1;;;;;;;;;;;;;
2023/11/23 04:17:04;;;;;;;8.1;4.9;;;;;;;;;;;;;
2023/11/23 04:19:28;;;;;;;7.2;5;;;;;;;;;;;;;
2023/11/23 04:21:55;;;;;;;7.2;5.1;;;;;;;;;;;;;
2023/11/23 04:24:20;;;;;;;6.5;4.2;;;;;;;;;;;;;
2023/11/23 04:26:46;;;;;;;7.6;5.2;;;;;;;;;;;;;
2023/11/23 04:29:11;;;;;;;7.2;4.8;;;;;;;;;;;;;
2023/11/23 04:31:39;;;;;;;6.7;4.4;;;;;;;;;;;;;
2023/11/23 04:34:04;;;;;;;6.4;4.5;;;;;;;;;;;;;
2023/11/23 04:36:30;;;;;;;6.8;4.8;;;;;;;;;;;;;
2023/11/23 04:38:54;;;;;;;8.3;6;;;;;;;;;;;;;
2023/11/23 04:41:23;;;;;;;8.7;6;;;;;;;;;;;;;
2023/11/23 04:43:48;;;;;;;7.9;5.5;;;;;;;;;;;;;
2023/11/23 04:46:13;;;;;;;7.6;5.1;;;;;;;;;;;;;
2023/11/23 04:48:39;;;;;;;8.9;5.5;;;;;;;;;;;;;
2023/11/23 04:51:04;;;;;;;6.7;5.2;;;;;;;;;;;;;
2023/11/23 04:53:29;;;;;;;8.2;5.6;;;;;;;;;;;;;
2023/11/23 04:55:57;;;;;;;9.3;5.6;;;;;;;;;;;;;
2023/11/23 04:58:22;;;;;;;8.4;5.5;;;;;;;;;;;;;
2023/11/23 05:00:48;;;;;;;7.3;5;;;;;;;;;;;;;
2023/11/23 05:03:13;;;;;;;8.4;5.3;;;;;;;;;;;;;
2023/11/23 05:05:39;;;;;;;8;5.2;;;;;;;;;;;;;
2023/11/23 05:08:05;;;;;;;8.3;5.1;;;;;;;;;;;;;
2023/11/23 05:10:31;;;;;;;7;4.8;;;;;;;;;;;;;
2023/11/23 05:12:56;;;;;;;9.4;5.7;;;;;;;;;;;;;
2023/11/23 05:15:22;;;;;;;7.1;4.7;;;;;;;;;;;;;
2023/11/23 05:17:47;;;;;;;7.4;4.8;;;;;;;;;;;;;
2023/11/23 05:20:14;;;;;;;6.6;4.8;;;;;;;;;;;;;
2023/11/23 05:22:38;;;;;;;8.1;4.5;;;;;;;;;;;;;
2023/11/23 05:25:06;;;;;;;6.1;4.3;;;;;;;;;;;;;
2023/11/23 05:27:31;;;;;;;6.3;4.7;;;;;;;;;;;;;
2023/11/23 05:29:56;;;;;;;11.6;6.9;;;;;;;;;;;;;
2023/11/23 05:32:21;;;;;;;6;4.4;;;;;;;;;;;;;
2023/11/23 05:34:51;;;;;;;5.7;4.4;;;;;;;;;;;;;
2023/11/23 05:37:16;;;;;;;6.3;4.1;;;;;;;;;;;;;
2023/11/23 05:39:41;;;;;;;7.6;4.8;;;;;;;;;;;;;
2023/11/23 05:42:07;;;;;;;6.4;4.7;;;;;;;;;;;;;
2023/11/23 05:44:32;;;;;;;6.7;4.5;;;;;;;;;;;;;
2023/11/23 05:46:56;;;;;;;6.7;4.8;;;;;;;;;;;;;
2023/11/23 05:49:23;;;;;;;8.2;5.6;;;;;;;;;;;;;
2023/11/23 05:51:49;;;;;;;9.1;7;;;;;;;;;;;;;
2023/11/23 05:54:14;;;;;;;7.2;4.6;;;;;;;;;;;;;
2023/11/23 05:56:39;;;;;;;6.5;4.5;;;;;;;;;;;;;
2023/11/23 05:59:05;;;;;;;6.1;4.3;;;;;;;;;;;;;
2023/11/23 06:01:31;;;;;;;5.9;4.5;;;;;;;;;;;;;
2023/11/23 06:03:57;;;;;;;6.3;4.2;;;;;;;;;;;;;
2023/11/23 06:06:22;;;;;;;5.1;3.8;;;;;;;;;;;;;
2023/11/23 06:08:49;;;;;;;4.9;3.7;;;;;;;;;;;;;
2023/11/23 06:11:14;;;;;;;5.1;3.6;;;;;;;;;;;;;
2023/11/23 06:13:40;;;;;;;5;3.8;;;;;;;;;;;;;
2023/11/23 06:16:05;;;;;;;5.8;3.8;;;;;;;;;;;;;
2023/11/23 06:18:31;;;;;;;4.7;3.5;;;;;;;;;;;;;
2023/11/23 06:20:56;;;;;;;5.2;3.5;;;;;;;;;;;;;
2023/11/23 06:23:24;;;;;;;11;6;;;;;;;;;;;;;
2023/11/23 06:25:49;;;;;;;8.6;5.8;;;;;;;;;;;;;
2023/11/23 06:28:14;;;;;;;10.4;6;;;;;;;;;;;;;
2023/11/23 06:30:39;;;;;;;11.4;7.3;;;;;;;;;;;;;
2023/11/23 06:33:06;;;;;;;12.7;8.1;;;;;;;;;;;;;
2023/11/23 06:35:31;;;;;;;10.1;6;;;;;;;;;;;;;
2023/11/23 06:37:56;;;;;;;10.2;5.6;;;;;;;;;;;;;
2023/11/23 06:40:21;;;;;;;10.2;6.4;;;;;;;;;;;;;
2023/11/23 06:42:49;;;;;;;9.9;6;;;;;;;;;;;;;
2023/11/23 06:45:16;;;;;;;8.5;5.6;;;;;;;;;;;;;
2023/11/23 06:47:42;;;;;;;8.8;5.2;;;;;;;;;;;;;
2023/11/23 06:50:08;;;;;;;13;10.7;;;;;;;;;;;;;
2023/11/23 06:52:34;;;;;;;11.4;9.6;;;;;;;;;;;;;
2023/11/23 06:55:01;;;;;;;11.8;7.7;;;;;;;;;;;;;
2023/11/23 06:57:27;;;;;;;8.7;6.2;;;;;;;;;;;;;
2023/11/23 06:59:51;;;;;;;9.2;6.4;;;;;;;;;;;;;
2023/11/23 07:02:17;;;;;;;7.5;5.3;;;;;;;;;;;;;
2023/11/23 07:04:42;;;;;;;10.1;6.8;;;;;;;;;;;;;
2023/11/23 07:07:10;;;;;;;8.1;6.1;;;;;;;;;;;;;
2023/11/23 07:09:35;;;;;;;7.7;5.8;;;;;;;;;;;;;
2023/11/23 07:12:02;;;;;;;7.8;5.1;;;;;;;;;;;;;
2023/11/23 07:14:27;;;;;;;12.1;7.5;;;;;;;;;;;;;
2023/11/23 07:16:54;;;;;;;11.4;6.9;;;;;;;;;;;;;
2023/11/23 07:19:18;;;;;;;8.7;5.5;;;;;;;;;;;;;
2023/11/23 07:21:44;;;;;;;6.5;4.6;;;;;;;;;;;;;
2023/11/23 07:24:09;;;;;;;4.7;4;;;;;;;;;;;;;
2023/11/23 07:26:34;;;;;;;3.8;3.4;;;;;;;;;;;;;
2023/11/23 07:28:59;;;;;;;3.4;3.1;;;;;;;;;;;;;
2023/11/23 07:31:26;;;;;;;2.6;2.1;;;;;;;;;;;;;
2023/11/23 07:33:52;;;;;;;2.6;2.1;;;;;;;;;;;;;
2023/11/23 07:36:21;;;;;;;2.5;2.3;;;;;;;;;;;;;
2023/11/23 07:38:48;;;;;;;4.1;2.4;;;;;;;;;;;;;
2023/11/23 07:41:11;;;;;;;2.7;2.1;;;;;;;;;;;;;
2023/11/23 07:43:36;;;;;;;2.4;2.1;;;;;;;;;;;;;
2023/11/23 07:46:01;;;;;;;3.5;2.8;;;;;;;;;;;;;
2023/11/23 07:48:29;;;;;;;3.6;3;;;;;;;;;;;;;
2023/11/23 07:50:54;;;;;;;5;3.1;;;;;;;;;;;;;
2023/11/23 07:53:20;;;;;;;5;3.5;;;;;;;;;;;;;
2023/11/23 07:55:45;;;;;;;6.1;3.3;;;;;;;;;;;;;
2023/11/23 07:58:11;;;;;;;5.8;4.1;;;;;;;;;;;;;
2023/11/23 08:00:37;;;;;;;6.6;4.2;;;;;;;;;;;;;
2023/11/23 08:03:02;;;;;;;5.6;3.9;;;;;;;;;;;;;
2023/11/23 08:05:27;;;;;;;4.8;3.2;;;;;;;;;;;;;
2023/11/23 08:07:56;;;;;;;6.4;4.2;;;;;;;;;;;;;
2023/11/23 08:10:21;;;;;;;5.5;4.2;;;;;;;;;;;;;
2023/11/23 08:12:46;;;;;;;5.8;4.5;;;;;;;;;;;;;
2023/11/23 08:15:12;;;;;;;5.2;3.8;;;;;;;;;;;;;
2023/11/23 08:17:40;;;;;;;9.5;5.1;;;;;;;;;;;;;
2023/11/23 08:20:13;;;;;;;7.2;4.8;;;;;;;;;;;;;
2023/11/23 08:22:40;;;;;;;6.2;4.3;;;;;;;;;;;;;
2023/11/23 08:25:04;;;;;;;7;4.1;;;;;;;;;;;;;
2023/11/23 08:27:31;;;;;;;4.2;2.8;;;;;;;;;;;;;
2023/11/23 08:29:56;;;;;;;2.8;2.3;;;;;;;;;;;;;
2023/11/23 08:32:21;;;;;;;4.7;3.1;;;;;;;;;;;;;
2023/11/23 08:34:48;;;;;;;3.8;3.3;;;;;;;;;;;;;
2023/11/23 08:37:15;;;;;;;6.4;3.8;;;;;;;;;;;;;
2023/11/23 08:39:40;;;;;;;7.4;4.4;;;;;;;;;;;;;
2023/11/23 08:42:10;;;;;;;7.4;4.5;;;;;;;;;;;;;
2023/11/23 08:44:35;;;;;;;8.8;5.2;;;;;;;;;;;;;
2023/11/23 08:47:04;;;;;;;7.4;5.2;;;;;;;;;;;;;
2023/11/23 08:49:31;;;;;;;8;4.6;;;;;;;;;;;;;
2023/11/23 08:51:57;;;;;;;6.4;4.5;;;;;;;;;;;;;
2023/11/23 08:54:23;;;;;;;6.5;4.2;;;;;;;;;;;;;
2023/11/23 08:56:48;;;;;;;3.4;2.7;;;;;;;;;;;;;
2023/11/23 08:59:13;;;;;;;4.5;2.6;;;;;;;;;;;;;
2023/11/23 09:01:43;;;;;;;2;1.6;;;;;;;;;;;;;
2023/11/23 09:04:07;;;;;;;2;1.6;;;;;;;;;;;;;
2023/11/23 09:06:36;;;;;;;1.7;1.3;;;;;;;;;;;;;
2023/11/23 09:09:01;;;;;;;1.5;1.4;;;;;;;;;;;;;
2023/11/23 09:11:28;;;;;;;1.6;1.3;;;;;;;;;;;;;
2023/11/23 09:13:53;;;;;;;1.4;1.1;;;;;;;;;;;;;
2023/11/23 09:16:22;;;;;;;1.5;1.4;;;;;;;;;;;;;
2023/11/23 09:18:46;;;;;;;2.7;1.9;;;;;;;;;;;;;
2023/11/23 09:21:12;;;;;;;37.4;15;;;;;;;;;;;;;
2023/11/23 09:23:37;;;;;;;6.8;4;;;;;;;;;;;;;
2023/11/23 09:26:07;;;;;;;2;1.7;;;;;;;;;;;;;
2023/11/23 09:28:30;;;;;;;2.6;1.4;;;;;;;;;;;;;
2023/11/23 09:30:55;;;;;;;1.5;1.2;;;;;;;;;;;;;
2023/11/23 09:33:21;;;;;;;2.3;1.5;;;;;;;;;;;;;
2023/11/23 09:35:47;;;;;;;4.3;1.5;;;;;;;;;;;;;
2023/11/23 09:38:12;;;;;;;2.6;1.6;;;;;;;;;;;;;
2023/11/23 09:40:39;;;;;;;2.3;1.1;;;;;;;;;;;;;
2023/11/23 09:43:04;;;;;;;5.6;1.6;;;;;;;;;;;;;
2023/11/23 09:45:32;;;;;;;3;1.6;;;;;;;;;;;;;
2023/11/23 09:47:56;;;;;;;1.8;1.2;;;;;;;;;;;;;
2023/11/23 09:50:23;;;;;;;1.8;1.4;;;;;;;;;;;;;
2023/11/23 09:52:48;;;;;;;1.4;1.2;;;;;;;;;;;;;
2023/11/23 09:55:16;;;;;;;2.2;1.2;;;;;;;;;;;;;
2023/11/23 09:57:38;;;;;;;3.3;1.2;;;;;;;;;;;;;
2023/11/23 10:00:09;;;;;;;3.8;1.2;;;;;;;;;;;;;
2023/11/23 10:02:32;;;;;;;3;1.3;;;;;;;;;;;;;
2023/11/23 10:04:58;;;;;;;3.1;1.4;;;;;;;;;;;;;
2023/11/23 10:07:23;;;;;;;2;1.3;;;;;;;;;;;;;
2023/11/23 10:09:51;;;;;;;5.7;1.4;;;;;;;;;;;;;
2023/11/23 10:12:16;;;;;;;2.6;1.5;;;;;;;;;;;;;
2023/11/23 10:14:43;;;;;;;4.2;1.1;;;;;;;;;;;;;
2023/11/23 10:17:08;;;;;;;7.6;1.7;;;;;;;;;;;;;
2023/11/23 10:19:34;;;;;;;2.1;1.1;;;;;;;;;;;;;
2023/11/23 10:22:03;;;;;;;4.8;1.1;;;;;;;;;;;;;
2023/11/23 10:24:26;;;;;;;2.6;1.1;;;;;;;;;;;;;
2023/11/23 10:26:52;;;;;;;2.7;1.2;;;;;;;;;;;;;
2023/11/23 10:29:18;;;;;;;1.4;1.1;;;;;;;;;;;;;
2023/11/23 10:31:42;;;;;;;5.7;1.6;;;;;;;;;;;;;
2023/11/23 10:34:09;;;;;;;2.4;1.2;;;;;;;;;;;;;
2023/11/23 10:36:35;;;;;;;3.4;2.1;;;;;;;;;;;;;
2023/11/23 10:39:00;;;;;;;1.7;1.5;;;;;;;;;;;;;
2023/11/23 10:41:25;;;;;;;1.8;1.3;;;;;;;;;;;;;
2023/11/23 10:43:52;;;;;;;2.6;1.4;;;;;;;;;;;;;
2023/11/23 10:46:18;;;;;;;1.3;1;;;;;;;;;;;;;
2023/11/23 10:48:43;;;;;;;2;1;;;;;;;;;;;;;
2023/11/23 10:51:09;;;;;;;2.2;1.1;;;;;;;;;;;;;
2023/11/23 10:53:35;;;;;;;1.2;1;;;;;;;;;;;;;
2023/11/23 10:56:01;;;;;;;2;1;;;;;;;;;;;;;
2023/11/23 10:58:27;;;;;;;1.5;1.1;;;;;;;;;;;;;
2023/11/23 11:00:51;;;;;;;1.9;1.2;;;;;;;;;;;;;
2023/11/23 11:03:17;;;;;;;3.2;1.3;;;;;;;;;;;;;
2023/11/23 11:05:45;;;;;;;1.9;0.9;;;;;;;;;;;;;
2023/11/23 11:08:11;;;;;;;0.9;0.9;;;;;;;;;;;;;
2023/11/23 11:10:36;;;;;;;4.9;1;;;;;;;;;;;;;
2023/11/23 11:13:02;;;;;;;1.1;1;;;;;;;;;;;;;
2023/11/23 11:15:27;;;;;;;1.5;0.9;;;;;;;;;;;;;
2023/11/23 11:17:55;;;;;;;1.8;0.7;;;;;;;;;;;;;
2023/11/23 11:20:18;;;;;;;3.7;1;;;;;;;;;;;;;
2023/11/23 11:22:46;;;;;;;1.5;0.7;;;;;;;;;;;;;
2023/11/23 11:25:11;;;;;;;3.2;0.9;;;;;;;;;;;;;
2023/11/23 11:27:41;;;;;;;0.9;0.8;;;;;;;;;;;;;
2023/11/23 11:30:12;;;;;;;1.4;1;;;;;;;;;;;;;
2023/11/23 11:32:40;;;;;;;1.5;0.8;;;;;;;;;;;;;
2023/11/23 11:35:04;;;;;;;1.1;0.7;;;;;;;;;;;;;
2023/11/23 11:37:29;;;;;;;1.7;1.2;;;;;;;;;;;;;
2023/11/23 11:39:55;;;;;;;0.9;0.7;;;;;;;;;;;;;
2023/11/23 11:42:20;;;;;;;1.4;1;;;;;;;;;;;;;
2023/11/23 11:44:48;;;;;;;1.2;0.6;;;;;;;;;;;;;
2023/11/23 11:47:14;;;;;;;1.9;1.2;;;;;;;;;;;;;
2023/11/23 11:49:41;;;;;;;2.1;1;;;;;;;;;;;;;
2023/11/23 11:52:06;;;;;;;2.5;0.8;;;;;;;;;;;;;
2023/11/23 11:54:32;;;;;;;2.6;1.1;;;;;;;;;;;;;
2023/11/23 11:56:57;;;;;;;2.1;1;;;;;;;;;;;;;
2023/11/23 11:59:24;;;;;;;1.5;1.2;;;;;;;;;;;;;
2023/11/23 12:01:49;;;;;;;3.7;0.8;;;;;;;;;;;;;
2023/11/23 12:04:15;;;;;;;1.4;0.9;;;;;;;;;;;;;
2023/11/23 12:06:39;;;;;;;1.4;0.9;;;;;;;;;;;;;
2023/11/23 12:09:05;;;;;;;0.5;0.5;;;;;;;;;;;;;
2023/11/23 12:11:30;;;;;;;2.9;1.3;;;;;;;;;;;;;
2023/11/23 12:13:55;;;;;;;1.4;0.9;;;;;;;;;;;;;
2023/11/23 12:16:22;;;;;;;0.8;0.6;;;;;;;;;;;;;
2023/11/23 12:18:48;;;;;;;0.9;0.7;;;;;;;;;;;;;
2023/11/23 12:21:13;;;;;;;0.9;0.7;;;;;;;;;;;;;
2023/11/23 12:23:38;;;;;;;1;0.8;;;;;;;;;;;;;
2023/11/23 12:26:03;;;;;;;2.2;1;;;;;;;;;;;;;
2023/11/23 12:28:29;;;;;;;1.6;1.3;;;;;;;;;;;;;
2023/11/23 12:30:57;;;;;;;2.7;1.1;;;;;;;;;;;;;
2023/11/23 12:33:22;;;;;;;1.8;1.3;;;;;;;;;;;;;
2023/11/23 12:35:49;;;;;;;1.4;1.1;;;;;;;;;;;;;
2023/11/23 12:38:13;;;;;;;2.7;1.2;;;;;;;;;;;;;
2023/11/23 12:40:39;;;;;;;3.1;1.5;;;;;;;;;;;;;
2023/11/23 12:43:04;;;;;;;1.3;1;;;;;;;;;;;;;
2023/11/23 12:45:31;;;;;;;1.8;0.9;;;;;;;;;;;;;
2023/11/23 12:47:56;;;;;;;2;1.1;;;;;;;;;;;;;
2023/11/23 12:50:23;;;;;;;1.8;1.1;;;;;;;;;;;;;
2023/11/23 12:52:47;;;;;;;4.4;1.4;;;;;;;;;;;;;
2023/11/23 12:55:16;;;;;;;1.1;0.9;;;;;;;;;;;;;
2023/11/23 12:57:40;;;;;;;1;0.9;;;;;;;;;;;;;
2023/11/23 13:00:13;;;;;;;1.5;0.9;;;;;;;;;;;;;
2023/11/23 13:02:34;;;;;;;1.3;0.8;;;;;;;;;;;;;
2023/11/23 13:05:01;;;;;;;3.1;1;;;;;;;;;;;;;
2023/11/23 13:07:26;;;;;;;1.8;1.2;;;;;;;;;;;;;
2023/11/23 13:09:51;;;;;;;1.7;1.1;;;;;;;;;;;;;
2023/11/23 13:12:17;;;;;;;2.6;1.5;;;;;;;;;;;;;
2023/11/23 13:14:43;;;;;;;1.9;1;;;;;;;;;;;;;
2023/11/23 13:17:08;;;;;;;3.8;1.1;;;;;;;;;;;;;
2023/11/23 13:19:35;;;;;;;2.4;1.2;;;;;;;;;;;;;
2023/11/23 13:22:00;;;;;;;1;0.7;;;;;;;;;;;;;
2023/11/23 13:24:27;;;;;;;2.1;0.8;;;;;;;;;;;;;
2023/11/23 13:26:51;;;;;;;0.6;0.6;;;;;;;;;;;;;
2023/11/23 13:29:16;;;;;;;2.3;0.9;;;;;;;;;;;;;
2023/11/23 13:31:43;;;;;;;2.6;1.6;;;;;;;;;;;;;
2023/11/23 13:34:08;;;;;;;3.2;1.7;;;;;;;;;;;;;
2023/11/23 13:36:35;;;;;;;2.8;1.4;;;;;;;;;;;;;
2023/11/23 13:38:58;;;;;;;1.7;1.2;;;;;;;;;;;;;
2023/11/23 13:41:25;;;;;;;1.2;1.1;;;;;;;;;;;;;
2023/11/23 13:43:50;;;;;;;2.8;1.4;;;;;;;;;;;;;
2023/11/23 13:46:16;;;;;;;2.4;1.1;;;;;;;;;;;;;
2023/11/23 13:48:42;;;;;;;3.2;1.8;;;;;;;;;;;;;
2023/11/23 13:51:09;;;;;;;1.7;1.3;;;;;;;;;;;;;
2023/11/23 13:53:34;;;;;;;2;1.3;;;;;;;;;;;;;
2023/11/23 13:56:00;;;;;;;1.5;1.1;;;;;;;;;;;;;
2023/11/23 13:58:29;;;;;;;4.9;1.9;;;;;;;;;;;;;
2023/11/23 14:00:50;;;;;;;3.7;1.2;;;;;;;;;;;;;
2023/11/23 14:03:16;;;;;;;1.4;1.1;;;;;;;;;;;;;
2023/11/23 14:05:41;;;;;;;1.3;1.1;;;;;;;;;;;;;
2023/11/23 14:08:07;;;;;;;2.2;1.4;;;;;;;;;;;;;
2023/11/23 14:10:32;;;;;;;2.1;1.1;;;;;;;;;;;;;
2023/11/23 14:12:59;;;;;;;1.1;1;;;;;;;;;;;;;
2023/11/23 14:15:24;;;;;;;1.5;0.8;;;;;;;;;;;;;
2023/11/23 14:17:51;;;;;;;1.8;1.1;;;;;;;;;;;;;
2023/11/23 14:20:16;;;;;;;2.3;1.1;;;;;;;;;;;;;
2023/11/23 14:22:42;;;;;;;2.4;1.3;;;;;;;;;;;;;
2023/11/23 14:25:07;;;;;;;6.6;3.3;;;;;;;;;;;;;
2023/11/23 14:27:34;;;;;;;6.6;3.9;;;;;;;;;;;;;
2023/11/23 14:29:58;;;;;;;7.3;3.6;;;;;;;;;;;;;
2023/11/23 14:32:24;;;;;;;2.9;1.6;;;;;;;;;;;;;
2023/11/23 14:34:49;;;;;;;3.6;1.9;;;;;;;;;;;;;
2023/11/23 14:37:17;;;;;;;2.3;1.9;;;;;;;;;;;;;
2023/11/23 14:39:42;;;;;;;4.3;2.7;;;;;;;;;;;;;
2023/11/23 14:42:11;;;;;;;7.5;3.2;;;;;;;;;;;;;
2023/11/23 14:44:35;;;;;;;10.1;5.3;;;;;;;;;;;;;
2023/11/23 14:47:00;;;;;;;9.4;4.8;;;;;;;;;;;;;
2023/11/23 14:49:30;;;;;;;16.4;7;;;;;;;;;;;;;
2023/11/23 14:51:55;;;;;;;9.2;4.6;;;;;;;;;;;;;
2023/11/23 14:54:18;;;;;;;6.7;4.1;;;;;;;;;;;;;
2023/11/23 14:56:49;;;;;;;6.6;3.7;;;;;;;;;;;;;
2023/11/23 14:59:09;;;;;;;6.6;3.9;;;;;;;;;;;;;
2023/11/23 15:01:37;;;;;;;7.8;4.2;;;;;;;;;;;;;
2023/11/23 15:04:04;;;;;;;7.3;3.6;;;;;;;;;;;;;
2023/11/23 15:06:30;;;;;;;9.1;4.2;;;;;;;;;;;;;
2023/11/23 15:08:56;;;;;;;8.2;4.8;;;;;;;;;;;;;
2023/11/23 15:11:25;;;;;;;12.5;6.5;;;;;;;;;;;;;
2023/11/23 15:13:50;;;;;;;7.1;4.3;;;;;;;;;;;;;
2023/11/23 15:16:16;;;;;;;7.6;4.4;;;;;;;;;;;;;
2023/11/23 15:18:42;;;;;;;12.6;6.4;;;;;;;;;;;;;
2023/11/23 15:21:08;;;;;;;8.2;5.3;;;;;;;;;;;;;
2023/11/23 15:23:34;;;;;;;11.7;6.9;;;;;;;;;;;;;
2023/11/23 15:25:59;;;;;;;7.8;4.3;;;;;;;;;;;;;
2023/11/23 15:28:25;;;;;;;7.3;5.2;;;;;;;;;;;;;
2023/11/23 15:30:50;;;;;;;7.1;4.7;;;;;;;;;;;;;
2023/11/23 15:33:17;;;;;;;7.7;4.9;;;;;;;;;;;;;
2023/11/23 15:35:43;;;;;;;10.8;6.8;;;;;;;;;;;;;
2023/11/23 15:38:07;;;;;;;19;10.8;;;;;;;;;;;;;
2023/11/23 15:40:35;;;;;;;26.5;14.1;;;;;;;;;;;;;
2023/11/23 15:43:00;;;;;;;23.8;12.5;;;;;;;;;;;;;
2023/11/23 15:45:26;;;;;;;18.6;10.3;;;;;;;;;;;;;
2023/11/23 15:47:50;;;;;;;16.2;9.6;;;;;;;;;;;;;
2023/11/23 15:50:17;;;;;;;12.6;8.4;;;;;;;;;;;;;
2023/11/23 15:52:42;;;;;;;11.2;7.2;;;;;;;;;;;;;
2023/11/23 15:55:11;;;;;;;8.7;6.2;;;;;;;;;;;;;
2023/11/23 15:57:41;;;;;;;9.6;6.2;;;;;;;;;;;;;
2023/11/23 16:00:06;;;;;;;9.3;5.6;;;;;;;;;;;;;
2023/11/23 16:02:34;;;;;;;8.6;5.2;;;;;;;;;;;;;
2023/11/23 16:04:59;;;;;;;7.6;4.9;;;;;;;;;;;;;
2023/11/23 16:07:25;;;;;;;8.5;5.5;;;;;;;;;;;;;
2023/11/23 16:09:50;;;;;;;11;6.4;;;;;;;;;;;;;
2023/11/23 16:12:16;;;;;;;10.2;6.8;;;;;;;;;;;;;
2023/11/23 16:14:40;;;;;;;12.3;7.2;;;;;;;;;;;;;
2023/11/23 16:17:08;;;;;;;15.4;8.6;;;;;;;;;;;;;
2023/11/23 16:19:32;;;;;;;15.3;9.6;;;;;;;;;;;;;
2023/11/23 16:21:59;;;;;;;18.4;11.6;;;;;;;;;;;;;
2023/11/23 16:24:24;;;;;;;20;12.1;;;;;;;;;;;;;
2023/11/23 16:26:49;;;;;;;16.9;10.1;;;;;;;;;;;;;
2023/11/23 16:29:14;;;;;;;18.7;11.1;;;;;;;;;;;;;
2023/11/23 16:31:42;;;;;;;15.1;10.6;;;;;;;;;;;;;
2023/11/23 16:34:06;;;;;;;17.5;11.1;;;;;;;;;;;;;
2023/11/23 16:36:34;;;;;;;17.4;10.9;;;;;;;;;;;;;
2023/11/23 16:38:59;;;;;;;13.8;8.1;;;;;;;;;;;;;
2023/11/23 16:41:24;;;;;;;14.5;8.4;;;;;;;;;;;;;
2023/11/23 16:43:50;;;;;;;16.6;9.4;;;;;;;;;;;;;
2023/11/23 16:46:19;;;;;;;18.2;9.8;;;;;;;;;;;;;
2023/11/23 16:48:42;;;;;;;17.3;9.4;;;;;;;;;;;;;
2023/11/23 16:51:09;;;;;;;16.4;9.1;;;;;;;;;;;;;
2023/11/23 16:53:33;;;;;;;12;7.1;;;;;;;;;;;;;
2023/11/23 16:56:00;;;;;;;9.5;6;;;;;;;;;;;;;
2023/11/23 16:58:25;;;;;;;11.6;7.2;;;;;;;;;;;;;
2023/11/23 17:00:51;;;;;;;13;7.7;;;;;;;;;;;;;
2023/11/23 17:03:15;;;;;;;11.5;7.2;;;;;;;;;;;;;
2023/11/23 17:05:43;;;;;;;18.8;11.3;;;;;;;;;;;;;
2023/11/23 17:08:11;;;;;;;16.6;9.9;;;;;;;;;;;;;
2023/11/23 17:10:33;;;;;;;13.8;8.7;;;;;;;;;;;;;
2023/11/23 17:12:58;;;;;;;13.7;8.7;;;;;;;;;;;;;
2023/11/23 17:15:23;;;;;;;23.6;13.8;;;;;;;;;;;;;
2023/11/23 17:17:50;;;;;;;26.9;15.2;;;;;;;;;;;;;
2023/11/23 17:20:16;;;;;;;18.3;11.3;;;;;;;;;;;;;
2023/11/23 17:22:44;;;;;;;22.7;13.7;;;;;;;;;;;;;
2023/11/23 17:25:15;;;;;;;18.9;12.5;;;;;;;;;;;;;
2023/11/23 17:27:47;;;;;;;19.8;13.2;;;;;;;;;;;;;
2023/11/23 17:30:11;;;;;;;20.8;13.4;;;;;;;;;;;;;
2023/11/23 17:32:38;;;;;;;28.8;16.6;;;;;;;;;;;;;
2023/11/23 17:35:04;;;;;;;28.5;17.6;;;;;;;;;;;;;
2023/11/23 17:37:33;;;;;;;17;11.1;;;;;;;;;;;;;
2023/11/23 17:39:58;;;;;;;20.1;12;;;;;;;;;;;;;
2023/11/23 17:42:27;;;;;;;25.3;16.5;;;;;;;;;;;;;
2023/11/23 17:44:56;;;;;;;31.9;20.2;;;;;;;;;;;;;
2023/11/23 17:47:22;;;;;;;16.1;10.4;;;;;;;;;;;;;
2023/11/23 17:49:50;;;;;;;11.5;6.5;;;;;;;;;;;;;
2023/11/23 17:52:16;;;;;;;8.3;4.9;;;;;;;;;;;;;
2023/11/23 17:54:43;;;;;;;15.1;9;;;;;;;;;;;;;
2023/11/23 17:57:10;;;;;;;22.9;14.3;;;;;;;;;;;;;
2023/11/23 17:59:35;;;;;;;26.2;16.3;;;;;;;;;;;;;
2023/11/23 18:02:03;;;;;;;25.9;14.9;;;;;;;;;;;;;
2023/11/23 18:04:28;;;;;;;28.9;16.6;;;;;;;;;;;;;
2023/11/23 18:06:55;;;;;;;28.7;16.3;;;;;;;;;;;;;
2023/11/23 18:09:20;;;;;;;30.5;20.1;;;;;;;;;;;;;
2023/11/23 18:11:49;;;;;;;38.5;21.2;;;;;;;;;;;;;
2023/11/23 18:14:15;;;;;;;25.7;14.7;;;;;;;;;;;;;
2023/11/23 18:16:43;;;;;;;29.4;16.8;;;;;;;;;;;;;
2023/11/23 18:19:08;;;;;;;37.6;19.7;;;;;;;;;;;;;
2023/11/23 18:21:34;;;;;;;27.4;15.1;;;;;;;;;;;;;
2023/11/23 18:24:00;;;;;;;108;72.6;;;;;;;;;;;;;
2023/11/23 18:26:27;;;;;;;27.9;15.9;;;;;;;;;;;;;
2023/11/23 18:28:52;;;;;;;23.5;15;;;;;;;;;;;;;
2023/11/23 18:31:22;;;;;;;38.3;22.1;;;;;;;;;;;;;
2023/11/23 18:33:43;;;;;;;25.5;16.4;;;;;;;;;;;;;
2023/11/23 18:36:10;;;;;;;18.7;12.1;;;;;;;;;;;;;
2023/11/23 18:38:35;;;;;;;51.6;30.8;;;;;;;;;;;;;
2023/11/23 18:41:04;;;;;;;21.8;11.3;;;;;;;;;;;;;
2023/11/23 18:43:29;;;;;;;88.3;45.3;;;;;;;;;;;;;
2023/11/23 18:45:54;;;;;;;159.4;88.7;;;;;;;;;;;;;
2023/11/23 18:48:20;;;;;;;150.3;79.4;;;;;;;;;;;;;
2023/11/23 18:50:47;;;;;;;19.5;13.6;;;;;;;;;;;;;
2023/11/23 18:53:12;;;;;;;24.5;16.2;;;;;;;;;;;;;
2023/11/23 18:55:39;;;;;;;24.3;16.3;;;;;;;;;;;;;
2023/11/23 18:58:06;;;;;;;22.6;14.5;;;;;;;;;;;;;
2023/11/23 19:00:30;;;;;;;15.9;10.8;;;;;;;;;;;;;
2023/11/23 19:02:59;;;;;;;18;11.7;;;;;;;;;;;;;
2023/11/23 19:05:23;;;;;;;14.9;8.3;;;;;;;;;;;;;
2023/11/23 19:07:49;;;;;;;10;7.5;;;;;;;;;;;;;
2023/11/23 19:10:15;;;;;;;18;12.2;;;;;;;;;;;;;
2023/11/23 19:12:45;;;;;;;25.9;15.9;;;;;;;;;;;;;
2023/11/23 19:15:10;;;;;;;21.2;13.5;;;;;;;;;;;;;
2023/11/23 19:17:42;;;;;;;15.9;8.7;;;;;;;;;;;;;
2023/11/23 19:20:05;;;;;;;16.3;9.5;;;;;;;;;;;;;
2023/11/23 19:22:32;;;;;;;17.3;9.8;;;;;;;;;;;;;
2023/11/23 19:24:59;;;;;;;18.1;11.2;;;;;;;;;;;;;
2023/11/23 19:27:24;;;;;;;21.7;14.1;;;;;;;;;;;;;
2023/11/23 19:29:49;;;;;;;70.5;37.6;;;;;;;;;;;;;
2023/11/23 19:32:23;;;;;;;25.1;15.5;;;;;;;;;;;;;
2023/11/23 19:34:43;;;;;;;21.6;13.1;;;;;;;;;;;;;
2023/11/23 19:37:07;;;;;;;19.9;12.8;;;;;;;;;;;;;
2023/11/23 19:39:35;;;;;;;29;18.2;;;;;;;;;;;;;
2023/11/23 19:42:01;;;;;;;20.2;15.4;;;;;;;;;;;;;
2023/11/23 19:44:27;;;;;;;23.7;16.3;;;;;;;;;;;;;
2023/11/23 19:46:52;;;;;;;23.5;16.5;;;;;;;;;;;;;
2023/11/23 19:49:19;;;;;;;22.6;14.8;;;;;;;;;;;;;
2023/11/23 19:51:44;;;;;;;23.2;14.1;;;;;;;;;;;;;
2023/11/23 19:54:09;;;;;;;16.1;9.8;;;;;;;;;;;;;
2023/11/23 19:56:35;;;;;;;18;11.6;;;;;;;;;;;;;
2023/11/23 19:59:01;;;;;;;15.8;9.9;;;;;;;;;;;;;
2023/11/23 20:01:26;;;;;;;15.1;9.7;;;;;;;;;;;;;
2023/11/23 20:03:51;;;;;;;17.3;11.4;;;;;;;;;;;;;
2023/11/23 20:06:18;;;;;;;16.9;10.8;;;;;;;;;;;;;
2023/11/23 20:08:43;;;;;;;21.5;12.9;;;;;;;;;;;;;
2023/11/23 20:11:11;;;;;;;20.1;12.8;;;;;;;;;;;;;
2023/11/23 20:13:35;;;;;;;20.2;12.4;;;;;;;;;;;;;
2023/11/23 20:16:00;;;;;;;18.5;11.6;;;;;;;;;;;;;
2023/11/23 20:18:26;;;;;;;25.4;14.9;;;;;;;;;;;;;
2023/11/23 20:20:52;;;;;;;25.3;13.2;;;;;;;;;;;;;
2023/11/23 20:23:18;;;;;;;18.8;10.4;;;;;;;;;;;;;
2023/11/23 20:25:44;;;;;;;15;9.2;;;;;;;;;;;;;
2023/11/23 20:28:12;;;;;;;14.5;8.5;;;;;;;;;;;;;